Time;durP1;ratioP1;P1;durP2;ratioP2;P2;SDS_P1;SDS_P2;PMS_P1;PMS_P2;Temp;Humidity;BMP_temperature;BMP_pressure;BME280_temperature;BME280_humidity;BME280_pressure;Samples;Min_cycle;Max_cycle;Signal;HPM_P1;HPM_P2
2021/10/10 00:00:51;;;;;;;1999.90;999.90;;;4.40;99.90;;;;;;5036427;28;20057;-84
2021/10/10 00:03:17;;;;;;;1999.90;999.90;;;4.40;99.90;;;;;;5036610;28;20072;-86
2021/10/10 00:05:43;;;;;;;1999.90;999.90;;;4.40;99.90;;;;;;5036473;28;20025;-87
2021/10/10 00:08:09;;;;;;;1999.90;999.90;;;4.30;99.90;;;;;;5037370;28;20030;-85
2021/10/10 00:10:35;;;;;;;1999.90;999.90;;;4.30;99.90;;;;;;5036170;28;20056;-86
2021/10/10 00:13:01;;;;;;;1999.90;999.90;;;4.30;99.90;;;;;;5036206;28;20045;-85
2021/10/10 00:15:27;;;;;;;1999.90;999.90;;;4.30;99.90;;;;;;5037864;28;20033;-86
2021/10/10 00:17:53;;;;;;;1999.90;999.90;;;4.20;99.90;;;;;;5036309;28;20076;-84
2021/10/10 00:20:19;;;;;;;1999.90;999.90;;;4.20;99.90;;;;;;5036118;28;20370;-85
2021/10/10 00:22:45;;;;;;;1999.90;999.90;;;4.10;99.90;;;;;;5036030;28;20021;-86
2021/10/10 00:25:11;;;;;;;1999.90;999.90;;;4.20;99.90;;;;;;5035701;28;20381;-85
2021/10/10 00:27:38;;;;;;;1999.90;999.90;;;4.10;99.90;;;;;;5035714;28;20120;-83
2021/10/10 00:30:06;;;;;;;1999.90;999.90;;;4.00;99.90;;;;;;5035011;28;20050;-83
2021/10/10 00:32:33;;;;;;;1999.90;999.90;;;4.00;99.90;;;;;;5035485;28;20072;-86
2021/10/10 00:34:59;;;;;;;1999.90;999.90;;;4.00;99.90;;;;;;5037637;28;20026;-86
2021/10/10 00:37:24;;;;;;;1999.90;999.90;;;4.00;99.90;;;;;;5037514;28;20033;-85
2021/10/10 00:39:51;;;;;;;1999.90;999.90;;;4.00;99.90;;;;;;5037794;28;20037;-84
2021/10/10 00:42:17;;;;;;;1999.90;999.90;;;4.00;99.90;;;;;;5038218;28;20492;-85
2021/10/10 00:44:47;;;;;;;1999.90;999.90;;;4.00;99.90;;;;;;5040287;28;20029;-87
2021/10/10 00:47:14;;;;;;;1999.90;999.90;;;4.00;99.90;;;;;;5045659;28;20005;-86
2021/10/10 00:49:40;;;;;;;1999.90;999.90;;;4.00;99.90;;;;;;5042287;28;20048;-85
2021/10/10 00:52:09;;;;;;;1999.90;999.90;;;4.00;99.90;;;;;;5036394;28;20032;-86
2021/10/10 00:54:36;;;;;;;1999.90;999.90;;;4.10;99.90;;;;;;5035216;28;20043;-86
2021/10/10 00:57:04;;;;;;;1999.90;999.90;;;4.10;99.90;;;;;;5035225;28;20031;-86
2021/10/10 00:59:34;;;;;;;1999.90;999.90;;;4.10;99.90;;;;;;5034778;28;20032;-86
2021/10/10 01:01:59;;;;;;;1999.90;999.90;;;4.20;99.90;;;;;;5033953;28;20047;-86
2021/10/10 01:04:25;;;;;;;1999.90;999.90;;;4.20;99.90;;;;;;5034447;28;20741;-83
2021/10/10 01:06:50;;;;;;;1999.90;999.90;;;4.20;99.90;;;;;;5034907;28;20033;-82
2021/10/10 01:09:16;;;;;;;1999.90;999.90;;;4.20;99.90;;;;;;5034234;28;20033;-85
2021/10/10 01:11:43;;;;;;;1999.90;999.90;;;4.20;99.90;;;;;;5036414;28;20032;-86
2021/10/10 01:14:11;;;;;;;1999.90;999.90;;;4.20;99.90;;;;;;5034955;28;20385;-85
2021/10/10 01:16:36;;;;;;;1999.90;999.90;;;4.10;99.90;;;;;;5035429;28;20034;-86
2021/10/10 01:19:03;;;;;;;1999.90;999.90;;;4.10;99.90;;;;;;5035426;28;20112;-85
2021/10/10 01:21:29;;;;;;;1999.90;999.90;;;4.00;99.90;;;;;;5034583;28;20480;-84
2021/10/10 01:23:55;;;;;;;1999.90;999.90;;;4.00;99.90;;;;;;5034897;28;20026;-86
2021/10/10 01:26:20;;;;;;;1999.90;999.90;;;4.00;99.90;;;;;;5036336;28;20541;-86
2021/10/10 01:28:47;;;;;;;1999.90;999.90;;;4.00;99.90;;;;;;5034679;28;20517;-84
2021/10/10 01:31:12;;;;;;;1999.90;999.90;;;4.00;99.90;;;;;;5018330;28;20075;-86
2021/10/10 01:33:38;;;;;;;1999.90;999.90;;;4.00;99.90;;;;;;5035634;28;20030;-86
2021/10/10 01:36:10;;;;;;;1999.90;999.90;;;3.90;99.90;;;;;;5018083;28;20091;-85
2021/10/10 01:38:36;;;;;;;1999.90;999.90;;;3.90;99.90;;;;;;5018703;28;20045;-86
2021/10/10 01:41:02;;;;;;;1999.90;999.90;;;3.90;99.90;;;;;;5018440;28;20025;-85
2021/10/10 01:43:28;;;;;;;1999.90;999.90;;;4.00;99.90;;;;;;5018580;28;20500;-85
2021/10/10 01:45:54;;;;;;;1999.90;999.90;;;3.90;99.90;;;;;;5018251;28;20024;-83
2021/10/10 01:48:19;;;;;;;1999.90;999.90;;;3.80;99.90;;;;;;5036226;28;20392;-87
2021/10/10 01:50:45;;;;;;;1999.90;999.90;;;3.80;99.90;;;;;;5036106;28;20385;-86
2021/10/10 01:53:11;;;;;;;1999.90;999.90;;;3.70;99.90;;;;;;5018365;28;20026;-86
2021/10/10 01:55:36;;;;;;;1999.90;999.90;;;3.70;99.90;;;;;;5018842;28;20384;-86
2021/10/10 01:58:02;;;;;;;1999.90;999.90;;;3.70;99.90;;;;;;5018490;28;20017;-87
2021/10/10 02:00:27;;;;;;;1999.90;999.90;;;3.80;99.90;;;;;;5035658;28;20053;-85
2021/10/10 02:02:53;;;;;;;1999.90;999.90;;;3.70;99.90;;;;;;5018355;28;20469;-85
2021/10/10 02:05:19;;;;;;;1999.90;999.90;;;3.70;99.90;;;;;;5035682;28;20033;-85
2021/10/10 02:07:44;;;;;;;1999.90;999.90;;;3.70;99.90;;;;;;5021754;28;20029;-86
2021/10/10 02:10:11;;;;;;;1999.90;999.90;;;3.70;99.90;;;;;;5021938;28;20030;-85
2021/10/10 02:12:37;;;;;;;1999.90;999.90;;;3.70;99.90;;;;;;5022300;28;20017;-85
2021/10/10 02:15:07;;;;;;;1999.90;999.90;;;3.70;99.90;;;;;;5022361;28;20022;-86
2021/10/10 02:17:33;;;;;;;1999.90;999.90;;;3.70;99.90;;;;;;5039045;28;20212;-85
2021/10/10 02:19:59;;;;;;;1999.90;999.90;;;3.80;99.90;;;;;;5021679;28;20112;-85
2021/10/10 02:22:25;;;;;;;1999.90;999.90;;;3.90;99.90;;;;;;5022081;28;20392;-85
2021/10/10 02:24:51;;;;;;;1999.90;999.90;;;3.90;99.90;;;;;;5021653;28;20026;-87
2021/10/10 02:27:17;;;;;;;1999.90;999.90;;;3.90;99.90;;;;;;5021486;28;20530;-84
2021/10/10 02:29:42;;;;;;;1999.90;999.90;;;3.90;99.90;;;;;;5026149;28;20057;-85
2021/10/10 02:32:08;;;;;;;1999.90;999.90;;;4.00;99.90;;;;;;5037974;28;20025;-84
2021/10/10 02:34:34;;;;;;;1999.90;999.90;;;4.00;99.90;;;;;;5038149;28;20040;-86
2021/10/10 02:36:59;;;;;;;1999.90;999.90;;;4.00;99.90;;;;;;5038556;28;20026;-85
2021/10/10 02:39:25;;;;;;;1999.90;999.90;;;4.00;99.90;;;;;;5038647;28;20110;-85
2021/10/10 02:41:51;;;;;;;1999.90;999.90;;;4.10;99.90;;;;;;5037949;28;20033;-87
2021/10/10 02:44:16;;;;;;;1999.90;999.90;;;4.10;99.90;;;;;;5037684;28;20128;-86
2021/10/10 02:46:42;;;;;;;1999.90;999.90;;;4.20;99.90;;;;;;5038478;28;20043;-86
2021/10/10 02:49:08;;;;;;;1999.90;999.90;;;4.20;99.90;;;;;;5037995;28;20042;-85
2021/10/10 02:51:33;;;;;;;1999.90;999.90;;;4.30;99.90;;;;;;5037856;28;20037;-84
2021/10/10 02:53:59;;;;;;;1999.90;999.90;;;4.20;99.90;;;;;;5037767;28;20034;-85
2021/10/10 02:56:25;;;;;;;1999.90;999.90;;;4.30;99.90;;;;;;5037977;28;20022;-87
2021/10/10 02:58:50;;;;;;;1999.90;999.90;;;4.40;99.90;;;;;;5037900;28;20031;-86
2021/10/10 03:01:17;;;;;;;1999.90;999.90;;;4.40;99.90;;;;;;5037527;28;21013;-83
2021/10/10 03:03:43;;;;;;;1999.90;999.90;;;4.40;99.90;;;;;;5037590;28;20030;-87
2021/10/10 03:06:09;;;;;;;1999.90;999.90;;;4.50;99.90;;;;;;5037869;28;20366;-85
2021/10/10 03:08:36;;;;;;;1999.90;999.90;;;4.50;99.90;;;;;;5037685;28;20127;-86
2021/10/10 03:11:02;;;;;;;1999.90;999.90;;;4.60;99.90;;;;;;5036864;28;20099;-85
2021/10/10 03:13:28;;;;;;;1999.90;999.90;;;4.70;99.90;;;;;;5038413;28;20500;-84
2021/10/10 03:15:55;;;;;;;1999.90;999.90;;;4.70;99.90;;;;;;5038521;28;20029;-86
2021/10/10 03:18:21;;;;;;;1999.90;999.90;;;4.80;99.90;;;;;;5036186;28;20040;-86
2021/10/10 03:20:46;;;;;;;1999.90;999.90;;;4.80;99.90;;;;;;5036940;28;20120;-86
2021/10/10 03:23:12;;;;;;;1999.90;999.90;;;4.90;99.90;;;;;;5037695;28;20030;-84
2021/10/10 03:25:38;;;;;;;1999.90;999.90;;;4.90;99.90;;;;;;5036644;28;20029;-84
2021/10/10 03:28:04;;;;;;;1999.90;999.90;;;5.00;99.90;;;;;;5036964;28;20452;-85
2021/10/10 03:30:29;;;;;;;1999.90;999.90;;;5.10;99.90;;;;;;5037306;28;20119;-86
2021/10/10 03:32:55;;;;;;;1999.90;999.90;;;5.20;99.90;;;;;;5036403;28;20354;-87
2021/10/10 03:35:21;;;;;;;1999.90;999.90;;;5.30;99.90;;;;;;5037822;28;20033;-86
2021/10/10 03:37:46;;;;;;;1999.90;999.90;;;5.40;99.90;;;;;;5036561;28;20036;-86
2021/10/10 03:40:13;;;;;;;1999.90;999.90;;;5.50;99.90;;;;;;5037065;28;20120;-86
2021/10/10 03:42:39;;;;;;;1999.90;999.90;;;5.60;99.90;;;;;;5036127;28;20022;-85
2021/10/10 03:45:06;;;;;;;1999.90;999.90;;;5.70;99.90;;;;;;5036518;28;20052;-85
2021/10/10 03:47:32;;;;;;;1999.90;999.90;;;5.80;99.90;;;;;;5036122;28;20032;-86
2021/10/10 03:49:58;;;;;;;1999.90;999.90;;;5.90;99.90;;;;;;5036038;28;20604;-85
2021/10/10 03:52:24;;;;;;;1999.90;999.90;;;6.10;99.90;;;;;;5036425;28;20049;-86
2021/10/10 03:57:23;;;;;;;1999.90;999.90;;;6.20;99.90;;;;;;5037569;28;20021;-86
2021/10/10 03:59:55;;;;;;;1999.90;999.90;;;6.30;99.90;;;;;;5036421;28;20516;-87
2021/10/10 04:02:20;;;;;;;1999.90;999.90;;;6.40;99.90;;;;;;5037074;28;20303;-84
2021/10/10 04:04:46;;;;;;;1999.90;999.90;;;6.40;99.90;;;;;;5036285;28;20026;-86
2021/10/10 04:07:12;;;;;;;1999.90;999.90;;;6.50;99.90;;;;;;5036433;28;20488;-86
2021/10/10 04:09:37;;;;;;;1999.90;999.90;;;6.50;99.90;;;;;;5036089;28;20030;-84
2021/10/10 04:12:03;;;;;;;1999.90;999.90;;;6.60;99.60;;;;;;5036021;28;20022;-87
2021/10/10 04:14:29;;;;;;;1999.90;999.90;;;6.60;98.80;;;;;;5035796;28;20112;-86
2021/10/10 04:16:54;;;;;;;1999.90;999.90;;;6.70;98.80;;;;;;5035939;28;20469;-85
2021/10/10 04:19:20;;;;;;;1999.90;999.90;;;6.60;98.90;;;;;;5035596;28;20029;-84
2021/10/10 04:21:46;;;;;;;1999.90;999.90;;;6.60;99.00;;;;;;5036297;28;20026;-85
2021/10/10 04:24:11;;;;;;;1999.90;999.90;;;6.70;98.40;;;;;;5035732;28;20026;-87
2021/10/10 04:26:37;;;;;;;1999.90;999.90;;;6.70;97.80;;;;;;5036461;28;20108;-83
2021/10/10 04:29:03;;;;;;;1999.90;999.90;;;6.80;97.80;;;;;;5036038;28;20038;-85
2021/10/10 04:31:29;;;;;;;1999.90;999.90;;;6.80;97.60;;;;;;5019836;28;20481;-85
2021/10/10 04:33:54;;;;;;;1999.90;999.90;;;6.80;97.30;;;;;;5019195;28;20030;-86
2021/10/10 04:36:20;;;;;;;1999.90;999.90;;;6.80;97.30;;;;;;5019486;28;20023;-85
2021/10/10 04:38:45;;;;;;;1999.90;999.90;;;6.80;97.10;;;;;;5019502;28;20052;-85
2021/10/10 04:41:12;;;;;;;1999.90;999.90;;;6.80;97.30;;;;;;5019317;28;20018;-85
2021/10/10 04:43:38;;;;;;;1999.90;999.90;;;6.80;97.20;;;;;;5018928;28;20072;-85
2021/10/10 04:46:04;;;;;;;1999.90;999.90;;;6.80;97.20;;;;;;5019321;28;20029;-84
2021/10/10 04:48:29;;;;;;;1999.90;999.90;;;6.80;96.80;;;;;;5018692;28;20469;-86
2021/10/10 04:50:55;;;;;;;1999.90;999.90;;;6.80;97.50;;;;;;5019060;28;20032;-85
2021/10/10 04:53:21;;;;;;;1999.90;999.90;;;6.80;99.10;;;;;;5019459;28;20037;-87
2021/10/10 04:55:46;;;;;;;1999.90;999.90;;;6.70;99.10;;;;;;5018579;28;20025;-86
2021/10/10 04:58:12;;;;;;;1999.90;999.90;;;6.60;99.20;;;;;;5018596;28;20009;-82
2021/10/10 05:00:38;;;;;;;1999.90;999.90;;;6.70;99.10;;;;;;5018924;28;20033;-85
2021/10/10 05:03:04;;;;;;;1999.90;999.90;;;6.60;99.30;;;;;;5018989;28;20491;-86
2021/10/10 05:05:30;;;;;;;1999.90;999.90;;;6.60;99.00;;;;;;5018983;28;20029;-86
2021/10/10 05:07:56;;;;;;;1999.90;999.90;;;6.60;99.00;;;;;;5019226;28;20026;-85
2021/10/10 05:10:21;;;;;;;1999.90;999.90;;;6.60;98.90;;;;;;5019191;28;20029;-85
2021/10/10 05:12:47;;;;;;;1999.90;999.90;;;6.60;99.20;;;;;;5018914;28;20030;-84
2021/10/10 05:15:13;;;;;;;1999.90;999.90;;;6.50;99.10;;;;;;5019582;28;20037;-83
2021/10/10 05:17:38;;;;;;;1999.90;999.90;;;6.50;99.60;;;;;;5017278;28;20021;-85
2021/10/10 05:20:05;;;;;;;1999.90;999.90;;;6.50;99.30;;;;;;5017294;28;20027;-83
2021/10/10 05:22:30;;;;;;;1999.90;999.90;;;6.50;99.90;;;;;;5016857;28;20388;-85
2021/10/10 05:24:58;;;;;;;1999.90;999.90;;;6.70;99.90;;;;;;5016746;28;20018;-84
2021/10/10 05:27:24;;;;;;;1999.90;999.90;;;6.70;99.90;;;;;;5017174;28;20029;-86
2021/10/10 05:29:50;;;;;;;1999.90;999.90;;;6.70;99.30;;;;;;5022638;28;20493;-85
2021/10/10 05:32:16;;;;;;;1999.90;999.90;;;6.60;99.20;;;;;;5033862;28;20025;-85
2021/10/10 05:34:41;;;;;;;1999.90;999.90;;;6.70;99.70;;;;;;5034500;28;20026;-86
2021/10/10 05:37:07;;;;;;;1999.90;999.90;;;6.60;99.00;;;;;;5034863;28;20061;-87
2021/10/10 05:39:33;;;;;;;1999.90;999.90;;;6.60;99.90;;;;;;5034490;28;20036;-86
2021/10/10 05:41:59;;;;;;;1999.90;999.90;;;6.70;99.90;;;;;;5037196;28;20024;-85
2021/10/10 05:44:25;;;;;;;1999.90;999.90;;;6.70;99.90;;;;;;5038489;28;20030;-85
2021/10/10 05:46:51;;;;;;;1999.90;999.90;;;6.60;99.90;;;;;;5037978;28;20492;-85
2021/10/10 05:49:17;;;;;;;1999.90;999.90;;;6.60;99.90;;;;;;5037653;28;20045;-84
2021/10/10 05:51:45;;;;;;;1999.90;999.90;;;6.60;99.60;;;;;;5038063;28;20026;-86
2021/10/10 05:54:13;;;;;;;1999.90;999.90;;;6.70;99.20;;;;;;5038133;28;20022;-84
2021/10/10 05:56:39;;;;;;;1999.90;999.90;;;6.70;99.10;;;;;;5038226;28;20025;-85
2021/10/10 05:59:08;;;;;;;1999.90;999.90;;;6.70;98.60;;;;;;5037794;28;20025;-85
2021/10/10 06:01:34;;;;;;;1999.90;999.90;;;6.80;98.50;;;;;;5038491;28;20350;-86
2021/10/10 06:04:03;;;;;;;1999.90;999.90;;;6.80;99.30;;;;;;5037611;28;20035;-85
2021/10/10 06:06:29;;;;;;;1999.90;999.90;;;6.80;99.30;;;;;;5037800;28;20029;-85
2021/10/10 06:08:55;;;;;;;1999.90;999.90;;;6.90;99.90;;;;;;5039224;28;20381;-86
2021/10/10 06:11:21;;;;;;;1999.90;999.90;;;6.80;98.40;;;;;;5037745;28;20036;-85
2021/10/10 06:13:47;;;;;;;1999.90;999.90;;;6.80;98.20;;;;;;5037421;28;20079;-86
2021/10/10 06:16:13;;;;;;;1999.90;999.90;;;6.80;97.90;;;;;;5037664;28;20025;-85
2021/10/10 06:18:39;;;;;;;1999.90;999.90;;;6.80;97.70;;;;;;5037667;28;20032;-84
2021/10/10 06:21:05;;;;;;;1999.90;999.90;;;6.80;98.30;;;;;;5037656;28;20120;-85
2021/10/10 06:23:31;;;;;;;1999.90;999.90;;;6.80;98.10;;;;;;5037882;28;20496;-85
2021/10/10 06:25:56;;;;;;;1999.90;999.90;;;6.90;98.10;;;;;;5038071;28;20036;-85
2021/10/10 06:28:22;;;;;;;1999.90;999.90;;;6.80;98.50;;;;;;5038632;28;20492;-84
2021/10/10 06:30:48;;;;;;;1999.90;999.90;;;6.90;98.30;;;;;;5037159;28;20046;-87
2021/10/10 06:33:14;;;;;;;1999.90;999.90;;;6.80;97.90;;;;;;5037110;28;20568;-85
2021/10/10 06:35:39;;;;;;;1999.90;999.90;;;6.90;98.50;;;;;;5037211;28;20026;-85
2021/10/10 06:38:05;;;;;;;1999.90;999.90;;;6.80;98.00;;;;;;5037698;28;20025;-85
2021/10/10 06:40:30;;;;;;;1999.90;999.90;;;6.90;98.20;;;;;;5036940;28;20030;-84
2021/10/10 06:42:56;;;;;;;1999.90;999.90;;;6.90;98.50;;;;;;5037031;28;20021;-87
2021/10/10 06:45:22;;;;;;;1999.90;999.90;;;7.00;98.10;;;;;;5038394;28;20079;-84
2021/10/10 06:47:47;;;;;;;1999.90;999.90;;;7.10;98.30;;;;;;5037554;28;20030;-85
2021/10/10 06:50:13;;;;;;;1999.90;999.90;;;7.10;98.90;;;;;;5038759;28;20077;-84
2021/10/10 06:52:39;;;;;;;1999.90;999.90;;;7.10;98.10;;;;;;5037439;28;20848;-85
2021/10/10 06:55:05;;;;;;;1999.90;999.90;;;7.10;97.80;;;;;;5037574;28;20021;-84
2021/10/10 06:57:32;;;;;;;1999.90;999.90;;;7.10;97.40;;;;;;5037371;28;20053;-86
2021/10/10 06:59:58;;;;;;;1999.90;999.90;;;7.10;97.40;;;;;;5037696;28;20028;-85
2021/10/10 07:02:25;;;;;;;1999.90;999.90;;;7.10;97.70;;;;;;5037073;28;20117;-87
2021/10/10 07:04:51;;;;;;;1999.90;999.90;;;7.10;97.50;;;;;;5036876;28;20049;-87
2021/10/10 07:07:17;;;;;;;1999.90;999.90;;;7.10;97.50;;;;;;5037594;28;20027;-86
2021/10/10 07:09:44;;;;;;;1999.90;999.90;;;7.10;97.70;;;;;;5036991;28;20128;-87
2021/10/10 07:12:09;;;;;;;1999.90;999.90;;;7.10;97.50;;;;;;5037165;28;20048;-85
2021/10/10 07:14:35;;;;;;;1999.90;999.90;;;7.20;97.50;;;;;;5037139;28;20548;-84
2021/10/10 07:17:01;;;;;;;1999.90;999.90;;;7.10;97.20;;;;;;5037450;28;20026;-83
2021/10/10 07:19:34;;;;;;;1999.90;999.90;;;7.20;96.50;;;;;;5036732;28;20033;-86
2021/10/10 07:22:13;;;;;;;1999.90;999.90;;;7.20;96.80;;;;;;5036947;28;20034;-87
2021/10/10 07:24:56;;;;;;;1999.90;999.90;;;7.20;97.40;;;;;;5036863;28;20033;-85
2021/10/10 07:27:22;;;;;;;1999.90;999.90;;;7.10;96.60;;;;;;5037277;28;20029;-85
2021/10/10 07:29:48;;;;;;;1999.90;999.90;;;7.10;96.40;;;;;;5036620;28;20046;-84
2021/10/10 07:32:14;;;;;;;1999.90;999.90;;;7.20;96.70;;;;;;5036673;28;20025;-85
2021/10/10 07:34:40;;;;;;;1999.90;999.90;;;7.10;96.40;;;;;;5035290;28;20098;-86
2021/10/10 07:37:06;;;;;;;1999.90;999.90;;;7.20;96.50;;;;;;5035565;28;20061;-85
2021/10/10 07:39:31;;;;;;;1999.90;999.90;;;7.20;96.90;;;;;;5034959;28;20476;-85
2021/10/10 07:41:57;;;;;;;1999.90;999.90;;;7.20;96.60;;;;;;5036269;28;20033;-82
2021/10/10 07:44:27;;;;;;;1999.90;999.90;;;7.20;96.40;;;;;;5034867;28;20470;-84
2021/10/10 07:47:06;;;;;;;1999.90;999.90;;;7.30;96.60;;;;;;5035061;28;20062;-84
2021/10/10 07:49:33;;;;;;;1999.90;999.90;;;7.30;95.90;;;;;;5035214;28;20049;-85
2021/10/10 07:51:59;;;;;;;1999.90;999.90;;;7.30;96.60;;;;;;5035136;28;20483;-85
2021/10/10 07:54:25;;;;;;;1999.90;999.90;;;7.30;96.10;;;;;;5034790;28;20120;-85
2021/10/10 07:56:50;;;;;;;1999.90;999.90;;;7.30;95.80;;;;;;5034851;28;20045;-85
2021/10/10 07:59:16;;;;;;;1999.90;999.90;;;7.40;96.70;;;;;;5034489;28;20389;-83
2021/10/10 08:01:41;;;;;;;1999.90;999.90;;;7.40;96.90;;;;;;5034599;28;20025;-86
2021/10/10 08:04:07;;;;;;;1999.90;999.90;;;7.40;96.50;;;;;;5033347;28;20055;-85
2021/10/10 08:06:33;;;;;;;1999.90;999.90;;;7.40;97.00;;;;;;5034355;28;20084;-86
2021/10/10 08:08:59;;;;;;;1999.90;999.90;;;7.50;97.70;;;;;;5034191;28;20496;-82
2021/10/10 08:11:26;;;;;;;1999.90;999.90;;;7.60;98.30;;;;;;5035702;28;20025;-87
2021/10/10 08:13:52;;;;;;;1999.90;999.90;;;7.60;97.70;;;;;;5034608;28;20031;-85
2021/10/10 08:16:17;;;;;;;1999.90;999.90;;;7.60;98.30;;;;;;5035417;28;20112;-85
2021/10/10 08:18:43;;;;;;;1999.90;999.90;;;7.50;97.70;;;;;;5034296;28;20071;-86
2021/10/10 08:21:09;;;;;;;1999.90;999.90;;;7.50;98.00;;;;;;5034201;28;20494;-85
2021/10/10 08:23:34;;;;;;;1999.90;999.90;;;7.50;97.20;;;;;;5034119;28;20032;-85
2021/10/10 08:26:00;;;;;;;1999.90;999.90;;;7.60;97.80;;;;;;5034545;28;20377;-88
2021/10/10 08:28:26;;;;;;;1999.90;999.90;;;7.50;97.40;;;;;;5033625;28;20025;-86
2021/10/10 08:30:52;;;;;;;1999.90;999.90;;;7.50;97.60;;;;;;5033730;28;20049;-86
2021/10/10 08:33:18;;;;;;;1999.90;999.90;;;7.50;98.30;;;;;;5033907;28;20026;-86
2021/10/10 08:35:44;;;;;;;1999.90;999.90;;;7.50;98.40;;;;;;5033625;28;20393;-88
2021/10/10 08:38:09;;;;;;;1999.90;999.90;;;7.60;99.20;;;;;;5033532;28;20021;-84
2021/10/10 08:40:35;;;;;;;1999.90;999.90;;;7.60;98.80;;;;;;5033668;28;20033;-80
2021/10/10 08:43:05;;;;;;;1999.90;999.90;;;7.60;98.10;;;;;;5033291;28;20034;-83
2021/10/10 08:45:33;;;;;;;1999.90;999.90;;;7.60;97.90;;;;;;5033619;28;20034;-85
2021/10/10 08:47:58;;;;;;;1999.90;999.90;;;7.60;98.50;;;;;;5032896;28;20021;-83
2021/10/10 08:50:26;;;;;;;1999.90;999.90;;;7.70;98.80;;;;;;5032751;28;20041;-83
2021/10/10 08:52:57;;;;;;;1999.90;999.90;;;7.70;97.50;;;;;;5032846;28;20491;-83
2021/10/10 08:55:25;;;;;;;1999.90;999.90;;;7.70;97.20;;;;;;5032776;28;20022;-82
2021/10/10 08:57:52;;;;;;;1999.90;999.90;;;7.70;97.10;;;;;;5032953;28;20033;-81
2021/10/10 09:00:20;;;;;;;1999.90;999.90;;;7.60;97.40;;;;;;5032619;28;20064;-83
2021/10/10 09:02:47;;;;;;;1999.90;999.90;;;7.60;97.90;;;;;;5033119;28;20477;-82
2021/10/10 09:05:15;;;;;;;1999.90;999.90;;;7.50;98.00;;;;;;5032776;28;20034;-90
2021/10/10 09:07:40;;;;;;;1999.90;999.90;;;7.50;98.00;;;;;;5033406;28;20048;-85
2021/10/10 09:10:17;;;;;;;1999.90;999.90;;;7.50;98.00;;;;;;5033683;28;20485;-86
2021/10/10 09:12:43;;;;;;;1999.90;999.90;;;7.30;98.30;;;;;;5031918;28;20025;-86
2021/10/10 09:15:09;;;;;;;1999.90;999.90;;;7.40;98.50;;;;;;5046063;28;20049;-87
2021/10/10 09:17:35;;;;;;;1999.90;999.90;;;7.30;98.60;;;;;;5052960;28;20029;-83
2021/10/10 09:20:04;;;;;;;1999.90;999.90;;;7.30;99.00;;;;;;5052405;28;20396;-84
2021/10/10 09:22:31;;;;;;;1999.90;999.90;;;7.20;99.90;;;;;;5055204;28;20048;-84
2021/10/10 09:25:09;;;;;;;1999.90;999.90;;;7.20;99.90;;;;;;5055663;28;20025;-84
2021/10/10 09:27:34;;;;;;;1999.90;999.90;;;7.20;99.90;;;;;;5052761;28;20021;-84
2021/10/10 09:30:03;;;;;;;1999.90;999.90;;;7.30;99.90;;;;;;5051774;28;20107;-79
2021/10/10 09:32:29;;;;;;;1999.90;999.90;;;7.30;99.90;;;;;;5053478;28;20025;-79
2021/10/10 09:34:55;;;;;;;1999.90;999.90;;;7.40;99.90;;;;;;5035478;28;20028;-81
2021/10/10 09:37:30;;;;;;;1999.90;999.90;;;7.30;99.90;;;;;;5037601;28;20056;-86
2021/10/10 09:40:25;;;;;;;1999.90;999.90;;;7.40;99.90;;;;;;5059527;28;20472;-86
2021/10/10 09:42:46;;;;;;;1999.90;999.90;;;7.30;99.90;;;;;;5044064;28;20521;-82
2021/10/10 09:45:19;;;;;;;1999.90;999.90;;;7.30;99.90;;;;;;5063097;28;20479;-83
2021/10/10 09:47:50;;;;;;;1999.90;999.90;;;7.40;99.90;;;;;;5041878;28;20026;-86
2021/10/10 09:50:16;;;;;;;1999.90;999.90;;;7.40;99.90;;;;;;5042352;28;20036;-88
2021/10/10 09:52:41;;;;;;;1999.90;999.90;;;7.50;99.90;;;;;;5042864;28;20025;-86
2021/10/10 09:55:11;;;;;;;1999.90;999.90;;;7.50;99.90;;;;;;5041279;28;20036;-87
2021/10/10 09:57:46;;;;;;;1999.90;999.90;;;7.50;99.90;;;;;;5023576;28;20029;-87
2021/10/10 10:00:24;;;;;;;1999.90;999.90;;;7.60;99.90;;;;;;5037234;28;20437;-85
2021/10/10 10:02:51;;;;;;;1999.90;999.90;;;7.60;99.90;;;;;;5036506;28;20495;-83
2021/10/10 10:05:27;;;;;;;1999.90;999.90;;;7.70;99.90;;;;;;5054036;28;20091;-87
2021/10/10 10:07:55;;;;;;;1999.90;999.90;;;7.70;99.90;;;;;;5037280;28;20017;-86
2021/10/10 10:10:21;;;;;;;1999.90;999.90;;;7.70;99.90;;;;;;5038249;28;20036;-83
2021/10/10 10:12:48;;;;;;;1999.90;999.90;;;7.70;99.90;;;;;;5027286;28;20563;-87
2021/10/10 10:15:16;;;;;;;1999.90;999.90;;;7.70;99.90;;;;;;5036890;28;20040;-84
2021/10/10 10:17:41;;;;;;;1999.90;999.90;;;7.60;99.90;;;;;;5054389;28;20022;-85
2021/10/10 10:20:08;;;;;;;1999.90;999.90;;;7.60;99.90;;;;;;5036988;28;20028;-84
2021/10/10 10:22:36;;;;;;;1999.90;999.90;;;7.60;99.90;;;;;;5037119;28;20473;-87
2021/10/10 10:25:04;;;;;;;1999.90;999.90;;;7.60;99.90;;;;;;5054402;28;20021;-86
2021/10/10 10:27:30;;;;;;;1999.90;999.90;;;7.70;99.90;;;;;;5038911;28;20024;-84
2021/10/10 10:29:57;;;;;;;1999.90;999.90;;;7.80;99.90;;;;;;5057955;28;20124;-86
2021/10/10 10:32:24;;;;;;;1999.90;999.90;;;7.90;99.90;;;;;;5040675;28;20025;-84
2021/10/10 10:35:07;;;;;;;1999.90;999.90;;;8.10;99.90;;;;;;5039773;28;20029;-88
2021/10/10 10:37:42;;;;;;;1999.90;999.90;;;8.10;99.90;;;;;;5040534;28;20026;-85
2021/10/10 10:40:30;;;;;;;1999.90;999.90;;;8.20;99.90;;;;;;5058628;28;20098;-86
2021/10/10 10:42:57;;;;;;;1999.90;999.90;;;8.10;99.90;;;;;;5040775;28;20025;-84
2021/10/10 10:45:23;;;;;;;1999.90;999.90;;;8.10;99.90;;;;;;5058105;28;20040;-84
2021/10/10 10:47:53;;;;;;;1999.90;999.90;;;8.00;99.90;;;;;;5039409;28;20018;-84
2021/10/10 10:50:44;;;;;;;1999.90;999.90;;;8.00;99.90;;;;;;5039547;28;20444;-87
2021/10/10 10:53:13;;;;;;;1999.90;999.90;;;8.00;99.90;;;;;;5039253;28;20047;-85
2021/10/10 10:55:42;;;;;;;1999.90;999.90;;;8.00;99.90;;;;;;5039366;28;20423;-86
2021/10/10 10:58:16;;;;;;;1999.90;999.90;;;8.00;99.90;;;;;;5039468;28;20090;-80
2021/10/10 11:00:44;;;;;;;1999.90;999.90;;;8.10;99.90;;;;;;5039659;28;20025;-86
2021/10/10 11:03:14;;;;;;;1999.90;999.90;;;8.10;99.90;;;;;;5039660;28;20036;-85
2021/10/10 11:05:57;;;;;;;1999.90;999.90;;;8.00;99.90;;;;;;5039734;28;20029;-86
2021/10/10 11:08:22;;;;;;;1999.90;999.90;;;8.10;99.90;;;;;;5039580;28;20124;-86
2021/10/10 11:11:03;;;;;;;1999.90;999.90;;;8.10;99.90;;;;;;5039680;28;20496;-81
2021/10/10 11:13:34;;;;;;;1999.90;999.90;;;8.30;99.90;;;;;;5040077;28;20033;-84
2021/10/10 11:16:06;;;;;;;1999.90;999.90;;;8.40;99.90;;;;;;5039994;28;20025;-86
2021/10/10 11:18:32;;;;;;;1999.90;999.90;;;8.40;99.90;;;;;;5039729;28;20033;-86
2021/10/10 11:21:04;;;;;;;1999.90;999.90;;;8.40;99.90;;;;;;5039746;28;20051;-86
2021/10/10 11:23:31;;;;;;;1999.90;999.90;;;8.40;99.90;;;;;;5039249;28;20076;-85
2021/10/10 11:25:59;;;;;;;1999.90;999.90;;;8.50;99.90;;;;;;5039504;28;20051;-89
2021/10/10 11:28:36;;;;;;;1999.90;999.90;;;8.50;99.90;;;;;;5057045;28;20028;-87
2021/10/10 11:31:15;;;;;;;1999.90;999.90;;;8.40;99.90;;;;;;5054386;28;20523;-85
2021/10/10 11:34:00;;;;;;;1999.90;999.90;;;8.50;99.90;;;;;;5055600;28;20047;-86
2021/10/10 11:36:45;;;;;;;1999.90;999.90;;;8.50;99.90;;;;;;5056968;28;20146;-85
2021/10/10 11:39:13;;;;;;;1999.90;999.90;;;8.50;99.90;;;;;;5054774;28;20024;-80
2021/10/10 11:41:41;;;;;;;1999.90;999.90;;;8.40;99.90;;;;;;5055815;28;20137;-86
2021/10/10 11:44:13;;;;;;;1999.90;999.90;;;8.40;99.90;;;;;;5054615;28;20021;-83
2021/10/10 11:46:50;;;;;;;1999.90;999.90;;;8.40;99.90;;;;;;5055432;28;20515;-86
2021/10/10 11:49:40;;;;;;;1999.90;999.90;;;8.40;99.90;;;;;;5056856;28;20036;-82
2021/10/10 11:52:18;;;;;;;1999.90;999.90;;;8.40;99.90;;;;;;5055388;28;20031;-85
2021/10/10 11:54:46;;;;;;;1999.90;999.90;;;8.50;99.90;;;;;;5055011;28;20056;-82
2021/10/10 11:57:13;;;;;;;1999.90;999.90;;;8.50;99.80;;;;;;5056139;28;20028;-84
2021/10/10 11:59:57;;;;;;;1999.90;999.90;;;8.50;99.80;;;;;;5054674;28;20548;-83
2021/10/10 12:02:24;;;;;;;1999.90;999.90;;;8.60;99.60;;;;;;5055186;28;20029;-87
2021/10/10 12:05:10;;;;;;;1999.90;999.90;;;8.70;99.40;;;;;;5055106;28;20120;-89
2021/10/10 12:07:36;;;;;;;;;;;8.70;99.00;;;;;;5056616;28;20032;-87
2021/10/10 12:10:04;;;;;;;1999.90;999.90;;;8.80;98.70;;;;;;5054825;28;19917;-86
2021/10/10 12:12:30;;;;;;;1999.90;999.90;;;8.70;98.40;;;;;;5055507;28;20392;-89